Map

Track Data

SID SEASON NUMBER BASIN SUBBASIN NAME ISO_TIME NATURE LAT LON WMO_WIND WMO_PRES WMO_AGENCY TRACK_TYPE DIST2LAND LANDFALL IFLAG USA_AGENCY USA_ATCF_ID USA_LAT USA_LON USA_RECORD USA_STATUS USA_WIND USA_PRES USA_SSHS USA_R34_NE USA_R34_SE USA_R34_SW USA_R34_NW USA_R50_NE USA_R50_SE USA_R50_SW USA_R50_NW USA_R64_NE USA_R64_SE USA_R64_SW USA_R64_NW USA_POCI USA_ROCI USA_RMW USA_EYE TOKYO_LAT TOKYO_LON TOKYO_GRADE TOKYO_WIND TOKYO_PRES TOKYO_R50_DIR TOKYO_R50_LONG TOKYO_R50_SHORT TOKYO_R30_DIR TOKYO_R30_LONG TOKYO_R30_SHORT TOKYO_LAND CMA_LAT CMA_LON CMA_CAT CMA_WIND CMA_PRES HKO_LAT HKO_LON HKO_CAT HKO_WIND HKO_PRES NEWDELHI_LAT NEWDELHI_LON NEWDELHI_GRADE NEWDELHI_WIND NEWDELHI_PRES NEWDELHI_CI NEWDELHI_DP NEWDELHI_POCI REUNION_LAT REUNION_LON REUNION_TYPE REUNION_WIND REUNION_PRES REUNION_TNUM REUNION_CI REUNION_RMW REUNION_R34_NE REUNION_R34_SE REUNION_R34_SW REUNION_R34_NW REUNION_R50_NE REUNION_R50_SE REUNION_R50_SW REUNION_R50_NW REUNION_R64_NE REUNION_R64_SE REUNION_R64_SW REUNION_R64_NW BOM_LAT BOM_LON BOM_TYPE BOM_WIND BOM_PRES BOM_TNUM BOM_CI BOM_RMW BOM_R34_NE BOM_R34_SE BOM_R34_SW BOM_R34_NW BOM_R50_NE BOM_R50_SE BOM_R50_SW BOM_R50_NW BOM_R64_NE BOM_R64_SE BOM_R64_SW BOM_R64_NW BOM_ROCI BOM_POCI BOM_EYE BOM_POS_METHOD BOM_PRES_METHOD NADI_LAT NADI_LON NADI_CAT NADI_WIND NADI_PRES WELLINGTON_LAT WELLINGTON_LON WELLINGTON_WIND WELLINGTON_PRES DS824_LAT DS824_LON DS824_STAGE DS824_WIND DS824_PRES TD9636_LAT TD9636_LON TD9636_STAGE TD9636_WIND TD9636_PRES TD9635_LAT TD9635_LON TD9635_WIND TD9635_PRES TD9635_ROCI NEUMANN_LAT NEUMANN_LON NEUMANN_CLASS NEUMANN_WIND NEUMANN_PRES MLC_LAT MLC_LON MLC_CLASS MLC_WIND MLC_PRES USA_GUST BOM_GUST BOM_GUST_PER REUNION_GUST REUNION_GUST_PER USA_SEAHGT USA_SEARAD_NE USA_SEARAD_SE USA_SEARAD_SW USA_SEARAD_NW STORM_SPEED STORM_DIR
1985009S11072 1985 5 SI MM CELESTINA 1985-01-09 06:00:00 NR -11.2000 72.4000 main 1861 1816 __________O___ -1 -11.2000 72.4000 1 11 273
1985009S11072 1985 5 SI MM CELESTINA 1985-01-09 09:00:00 NR -11.1691 71.8577 main 1816 1769 __________P___ -1 -11.1691 71.8577 1 11 273
1985009S11072 1985 5 SI MM CELESTINA 1985-01-09 12:00:00 NR -11.1403 71.3023 main 1769 1725 __________P___ -1 -11.1403 71.3023 1 11 273
1985009S11072 1985 5 SI MM CELESTINA 1985-01-09 15:00:00 NR -11.1163 70.7209 main 1717 1665 __________P___ -1 -11.1163 70.7209 1 12 272
1985009S11072 1985 5 SI MM CELESTINA 1985-01-09 18:00:00 NR -11.1000 70.1000 main 1665 1615 __________O___ -1 -11.1000 70.1000 1 13 271
1985009S11072 1985 5 SI MM CELESTINA 1985-01-09 21:00:00 NR -11.0945 69.4334 main 1606 1557 __________P___ -1 -11.0945 69.4334 1 13 270
1985009S11072 1985 5 SI MM CELESTINA 1985-01-10 00:00:00 NR -11.1053 68.7423 main 1549 1500 __________P___ -1 -11.1053 68.7423 1 14 268
1985009S11072 1985 5 SI MM CELESTINA 1985-01-10 03:00:00 NR -11.1383 68.0551 main 1500 1408 __________P___ -1 -11.1383 68.0551 1 19 271
1985009S11072 1985 5 SI MM CELESTINA 1985-01-10 06:00:00 TS -11.0667 66.8333 main 1400 1350 O_________O_O_ jtwc_sh SH101985 -10.8000 65.7000 XX 20 -5 -11.2000 67.4000 1 -10.8000 65.7000 TC 20 19 272
1985009S11072 1985 5 SI MM CELESTINA 1985-01-10 09:00:00 TS -11.0826 66.1160 main 1350 1315 P_________P_P_ SH101985 -10.8900 65.4100 XX 20 -5 -11.2752 66.8220 1 -10.8900 65.4100 TC 20 12 266
1985009S11072 1985 5 SI MM CELESTINA 1985-01-10 12:00:00 TS -11.1526 65.5708 main 1306 1263 O_________P_O_ jtwc_sh SH101985 -11.0000 65.1000 XX 20 -5 -11.3815 66.2771 1 -11.0000 65.1000 TC 20 10 260
1985009S11072 1985 5 SI MM CELESTINA 1985-01-10 15:00:00 TS -11.2690 65.0862 main 1263 1228 P_________P_P_ SH101985 -11.1425 64.7575 XX 22 -5 -11.5221 65.7437 1 -11.1425 64.7575 TC 22 9 252
1985009S11072 1985 5 SI MM CELESTINA 1985-01-10 18:00:00 TS -11.4333 64.6667 main 1228 1184 O_________O_O_ jtwc_sh SH101985 -11.3000 64.4000 XX 25 -5 -11.7000 65.2000 1 -11.3000 64.4000 TC 25 9 248
1985009S11072 1985 5 SI MM CELESTINA 1985-01-10 21:00:00 TS -11.6142 64.2325 main 1178 1134 P_________P_P_ SH101985 -11.4499 64.0574 XX 25 -5 -11.9427 64.5826 1 -11.4499 64.0574 TC 25 9 247
1985009S11072 1985 5 SI MM CELESTINA 1985-01-11 00:00:00 TS -11.8051 63.7854 main 1134 1091 O_________P_O_ jtwc_sh SH101985 -11.6000 63.7000 XX 25 -5 -12.2154 63.9561 1 -11.6000 63.7000 TC 25 10 247
1985009S11072 1985 5 SI MM CELESTINA 1985-01-11 03:00:00 TS -11.9934 63.3271 main 1086 1043 P_________P_P_ SH101985 -11.7499 63.3150 XX 27 -5 -12.4803 63.3514 1 -11.7499 63.3150 TC 27 10 248
1985009S11072 1985 5 SI MM CELESTINA 1985-01-11 06:00:00 TS -12.1667 62.8667 main 1043 1006 O_________O_O_ jtwc_sh SH101985 -11.9000 62.9000 XX 30 -5 -12.7000 62.8000 1 -11.9000 62.9000 TC 30 10 251
1985009S11072 1985 5 SI MM CELESTINA 1985-01-11 09:00:00 TS -12.3019 62.4085 main 1006 976 P_________P_P_ SH101985 -12.0425 62.4499 XX 30 -5 -12.8207 62.3256 1 -12.0425 62.4499 TC 30 9 253
1985009S11072 1985 5 SI MM CELESTINA 1985-01-11 12:00:00 TS -12.4314 61.9698 main 976 936 O_________P_O_ jtwc_sh SH101985 -12.2000 62.0000 XX 30 -5 -12.8943 61.9093 1 -12.2000 62.0000 TC 30 9 252
1985009S11072 1985 5 SI MM CELESTINA 1985-01-11 15:00:00 TS -12.5719 61.5744 main 936 908 P_________P_P_ SH101985 -12.3849 61.5924 XX 32 -5 -12.9459 61.5383 1 -12.3849 61.5924 TC 32 8 248
1985009S11072 1985 5 SI MM CELESTINA 1985-01-11 18:00:00 TS -12.7333 61.2000 main 908 870 O_________O_O_ jtwc_sh SH101985 -12.6000 61.2000 XX 35 -5 -13.0000 61.2000 1 -12.6000 61.2000 TC 35 8 246
1985009S11072 1985 5 SI MM CELESTINA 1985-01-11 21:00:00 TS -12.9046 60.8145 main 870 838 P_________P_P_ SH101985 -12.8350 60.7924 XX 37 -5 -13.0439 60.8587 1 -12.8350 60.7924 TC 37 8 243
1985009S11072 1985 5 SI MM CELESTINA 1985-01-12 00:00:00 TS -13.1008 60.4490 main 834 802 O_________P_O_ jtwc_sh SH101985 -13.1000 60.4000 XX 40 -5 -13.1023 60.5469 1 -13.1000 60.4000 TC 40 8 238
1985009S11072 1985 5 SI MM CELESTINA 1985-01-12 03:00:00 TS -13.3315 60.1155 main 802 760 P_________P_P_ SH101985 -13.3924 60.0424 XX 42 -5 -13.2096 60.2617 1 -13.3924 60.0424 TC 42 8 231
1985009S11072 1985 5 SI MM CELESTINA 1985-01-12 06:00:00 TS -13.5923 59.8308 28 997 reunion main 760 722 O____O____O_O_ jtwc_sh SH101985 -13.7000 59.7000 XX 45 -5 -13.5000 60.2000 2 28 997 2.50000 2.50000 -13.4000 60.0000 2 35 -13.7000 59.7000 TC 45 8 222
1985009S11072 1985 5 SI MM CELESTINA 1985-01-12 09:00:00 TS -13.9022 59.5812 main 722 681 P____P____P_P_ SH101985 -13.9999 59.3499 XX 47 -5 -13.8325 60.0325 2 32 994 -13.7414 59.8181 2 36 -13.9999 59.3499 TC 47 8 217
1985009S11072 1985 5 SI MM CELESTINA 1985-01-12 12:00:00 TS -14.2430 59.3325 36 991 reunion main 681 633 O____O____P_O_ jtwc_sh SH101985 -14.3000 59.0000 XX 50 -5 -14.2000 59.8000 3 36 991 3.00000 3.00000 -14.1612 59.6468 2 37 -14.3000 59.0000 TC 50 9 217
1985009S11072 1985 5 SI MM CELESTINA 1985-01-12 15:00:00 TS -14.6038 59.0449 main 630 591 P____P____P_P_ SH101985 -14.5999 58.6499 XX 52 -5 -14.6149 59.4526 3 36 991 -14.6005 59.4273 2 38 -14.5999 58.6499 TC 52 10 222
1985009S11072 1985 5 SI MM CELESTINA 1985-01-12 18:00:00 TS -14.9500 58.6750 36 991 reunion main 591 551 O____O____O_O_ jtwc_sh SH101985 -14.9000 58.3000 XX 55 -5 -15.0000 59.0000 3 36 991 3.00000 3.00000 -15.0000 59.1000 2 40 -14.9000 58.3000 TC 55 10 231
1985009S11072 1985 5 SI MM CELESTINA 1985-01-12 21:00:00 TS -15.2392 58.2263 main 550 514 P____P____P_P_ SH101985 -15.1999 57.9499 XX 57 -5 -15.2800 58.4798 3 40 987 -15.2770 58.5254 2 42 -15.1999 57.9499 TC 57 11 239
1985009S11072 1985 5 SI MM CELESTINA 1985-01-13 00:00:00 TS -15.5012 57.7376 44 984 reunion main 514 492 O____O____P_O_ jtwc_sh SH101985 -15.5000 57.6000 XX 60 -5 -15.5000 57.9000 3 44 984 3.50000 3.50000 -15.5049 57.8505 2 45 -15.5000 57.6000 TC 60 11 242
1985009S11072 1985 5 SI MM CELESTINA 1985-01-13 03:00:00 TS -15.7532 57.2344 main 482 464 P____P____P_P_ SH101985 -15.7999 57.2499 XX 60 -5 -15.7077 57.2625 3 44 984 -15.7052 57.1753 2 47 -15.7999 57.2499 TC 60 11 242
1985009S11072 1985 5 SI MM CELESTINA 1985-01-13 06:00:00 TS -16.0000 56.7750 44 984 reunion main 464 448 O____O____O_O_ jtwc_sh SH101985 -16.1000 56.9000 XX 60 -5 -15.9000 56.7000 3 44 984 3.50000 3.50000 -15.9000 56.6000 2 50 -16.1000 56.9000 TC 60 9 238
1985009S11072 1985 5 SI MM CELESTINA 1985-01-13 09:00:00 TS -16.2541 56.4124 main 440 425 P____P____P_P_ SH101985 -16.4000 56.5350 XX 60 -5 -16.0923 56.3324 3 48 980 -16.1239 56.2472 2 50 -16.4000 56.5350 TC 60 8 231
1985009S11072 1985 5 SI MM CELESTINA 1985-01-13 12:00:00 TS -16.5122 56.1267 52 976 reunion main 429 405 O____O____P_O_ jtwc_sh SH101985 -16.7000 56.2000 XX 60 -5 -16.3000 56.1000 3 52 976 4.00000 4.00000 -16.3488 56.0068 2 50 -16.7000 56.2000 TC 60 7 222
1985009S11072 1985 5 SI MM CELESTINA 1985-01-13 15:00:00 TS -16.7866 55.9088 main 405 390 P____P____P_P_ SH101985 -17.0074 55.9274 XX 62 -5 -16.5574 55.9424 3 48 980 -16.5743 55.8380 2 50 -17.0074 55.9274 TC 62 7 216
1985009S11072 1985 5 SI MM CELESTINA 1985-01-13 18:00:00 TS -17.0500 55.7250 44 984 reunion main 395 377 O____O____O_O_ jtwc_sh SH101985 -17.3000 55.7000 XX 65 -5 -16.8000 55.8000 3 44 984 3.50000 3.50000 -16.8000 55.7000 2 50 -17.3000 55.7000 TC 65 6 218
1985009S11072 1985 5 SI MM CELESTINA 1985-01-13 21:00:00 TS -17.2633 55.5167 main 377 371 P____P____P_P_ SH101985 -17.5650 55.4924 XX 62 -5 -16.9351 55.5499 3 44 984 -16.9883 55.5320 2 50 -17.5650 55.4924 TC 62 6 223
1985009S11072 1985 5 SI MM CELESTINA 1985-01-14 00:00:00 TS -17.4706 55.3211 44 984 reunion main 371 361 O____O____P_O_ jtwc_sh SH101985 -17.8000 55.3000 XX 60 -5 -17.1000 55.3000 3 44 984 3.50000 3.50000 -17.1823 55.3843 2 50 -17.8000 55.3000 TC 60 6 218
1985009S11072 1985 5 SI MM CELESTINA 1985-01-14 03:00:00 TS -17.7132 55.1448 main 368 337 P____P____P_P_ SH101985 -18.0075 55.0999 XX 57 -5 -17.4275 55.1350 3 44 984 -17.4102 55.2444 2 50 -18.0075 55.0999 TC 57 6 213
1985009S11072 1985 5 SI MM CELESTINA 1985-01-14 06:00:00 TS -17.9750 54.9750 44 984 reunion main 337 317 O____O____O_O_ jtwc_sh SH101985 -18.2000 54.9000 XX 55 -5 -17.8000 55.0000 3 44 984 3.50000 3.50000 -17.7000 55.1000 2 50 -18.2000 54.9000 TC 55 6 213
1985009S11072 1985 5 SI MM CELESTINA 1985-01-14 09:00:00 TS -18.2467 54.7858 main 317 286 P____P____P_P_ SH101985 -18.3925 54.6925 XX 52 -5 -18.1000 54.8499 3 44 984 -18.1017 54.9084 2 50 -18.3925 54.6925 TC 52 7 212
1985009S11072 1985 5 SI MM CELESTINA 1985-01-14 12:00:00 TS -18.5407 54.6034 44 984 reunion main 289 253 O____O____P_O_ jtwc_sh SH101985 -18.6000 54.5000 XX 50 -5 -18.4000 54.7000 3 44 984 3.50000 3.50000 -18.5627 54.7134 2 50 -18.6000 54.5000 TC 50 7 208
1985009S11072 1985 5 SI MM CELESTINA 1985-01-14 15:00:00 TS -18.8712 54.4354 main 253 226 P____P____P_P_ SH101985 -18.8575 54.3425 XX 50 -5 -18.7275 54.5201 3 44 984 -19.0423 54.5366 2 50 -18.8575 54.3425 TC 50 7 204
1985009S11072 1985 5 SI MM CELESTINA 1985-01-14 18:00:00 TS -19.2000 54.3000 44 984 reunion main 226 203 O____O____O_O_ jtwc_sh SH101985 -19.1000 54.2000 XX 50 -5 -19.1000 54.4000 3 44 984 3.50000 3.50000 -19.5000 54.4000 2 50 -19.1000 54.2000 TC 50 7 198
1985009S11072 1985 5 SI MM CELESTINA 1985-01-14 21:00:00 TS -19.4992 54.2186 main 203 176 P____P____P_P_ SH101985 -19.2650 54.0425 XX 50 -5 -19.5275 54.4421 3 44 984 -19.9395 54.3475 2 50 -19.2650 54.0425 TC 50 6 193
1985009S11072 1985 5 SI MM CELESTINA 1985-01-15 00:00:00 TS -19.7856 54.1586 44 984 reunion main 176 160 O____O____P_O_ jtwc_sh SH101985 -19.4000 53.9000 XX 50 -5 -20.0000 54.5000 3 44 984 3.50000 3.50000 -20.3423 54.3342 2 50 -19.4000 53.9000 TC 50 6 192
1985009S11072 1985 5 SI MM CELESTINA 1985-01-15 03:00:00 TS -20.0778 54.0860 main 160 152 P____P____P_P_ SH101985 -19.5425 53.7924 XX 50 -5 -20.5525 54.4302 3 44 984 -20.6739 54.3289 2 50 -19.5425 53.7924 TC 50 6 195
1985009S11072 1985 5 SI MM CELESTINA 1985-01-15 06:00:00 TS -20.3250 54.0000 44 984 reunion main 153 147 O____O____O_O_ jtwc_sh SH101985 -19.7000 53.7000 XX 50 -5 -21.0000 54.3000 3 44 984 3.50000 3.50000 -20.9000 54.3000 2 50 -19.7000 53.7000 TC 50 4 205
1985009S11072 1985 5 SI MM CELESTINA 1985-01-15 09:00:00 TS -20.4782 53.8902 main 150 150 P____P____P_P_ SH101985 -19.8850 53.5925 XX 52 -5 -21.1599 54.1723 3 40 -20.9828 54.2036 2 50 -19.8850 53.5925 TC 52 3 219
1985009S11072 1985 5 SI MM CELESTINA 1985-01-15 12:00:00 TS -20.5906 53.7699 36 reunion main 155 155 O____O____P_O_ jtwc_sh SH101985 -20.1000 53.5000 XX 55 -5 -21.2000 54.0000 6 36 9.90000 -20.9625 54.0798 2 50 -20.1000 53.5000 TC 55 3 223
1985009S11072 1985 5 SI MM CELESTINA 1985-01-15 15:00:00 TS -20.7271 53.6385 main 172 169 P____P____P_P_ SH101985 -20.3425 53.4275 XX 55 -5 -21.3376 53.7577 6 36 -20.8860 53.9411 2 50 -20.3425 53.4275 TC 55 3 222
1985009S11072 1985 5 SI MM CELESTINA 1985-01-15 18:00:00 TS -20.8500 53.5250 36 reunion main 179 177 O____O____O_O_ jtwc_sh SH101985 -20.6000 53.4000 XX 55 -5 -21.4000 53.5000 6 36 9.90000 -20.8000 53.8000 2 50 -20.6000 53.4000 TC 55 3 224
1985009S11072 1985 5 SI MM CELESTINA 1985-01-15 21:00:00 TS -20.9323 53.4281 main 188 187 P____P____P_P_ SH101985 -20.8500 53.4275 XX 55 -5 -21.2950 53.2472 6 40 -20.7344 53.6102 2 50 -20.8500 53.4275 TC 55 2 222
1985009S11072 1985 5 SI MM CELESTINA 1985-01-16 00:00:00 TS -20.9937 53.3826 44 984 reunion main 187 186 O____O____P_O_ jtwc_sh SH101985 -21.1000 53.5000 XX 55 -5 -21.1000 53.1000 3 44 984 3.50000 3.50000 -20.6749 53.4304 2 50 -21.1000 53.5000 TC 55 1 200
1985009S11072 1985 5 SI MM CELESTINA 1985-01-16 03:00:00 TS -21.0613 53.3977 main 186 176 P____P____P_P_ SH101985 -21.3650 53.5775 XX 55 -5 -20.8624 53.1252 3 44 984 -20.6529 53.3104 2 50 -21.3650 53.5775 TC 55 2 144
1985009S11072 1985 5 SI MM CELESTINA 1985-01-16 06:00:00 TS -21.1500 53.5000 44 984 reunion main 176 157 O____O____O_O_ jtwc_sh SH101985 -21.6000 53.7000 XX 55 -5 -20.7000 53.3000 3 44 984 3.50000 3.50000 -20.7000 53.3000 2 50 -21.6000 53.7000 TC 55 4 128
1985009S11072 1985 5 SI MM CELESTINA 1985-01-16 09:00:00 TS -21.2857 53.7075 main 157 138 P____P____P_P_ SH101985 -21.7725 53.8850 XX 55 -5 -20.7402 53.5924 3 44 984 -20.8575 53.4675 2 50 -21.7725 53.8850 TC 55 5 125
1985009S11072 1985 5 SI MM CELESTINA 1985-01-16 12:00:00 TS -21.4458 53.9610 44 984 reunion main 128 117 O____O____P_O_ jtwc_sh SH101985 -21.9000 54.1000 XX 55 -5 -20.9000 53.9000 3 44 984 3.50000 3.50000 -21.0830 53.7441 2 50 -21.9000 54.1000 TC 55 5 126
1985009S11072 1985 5 SI MM CELESTINA 1985-01-16 15:00:00 TS -21.6048 54.1735 main 117 103 P____P____P_P_ SH101985 -22.0074 54.2851 XX 55 -5 -21.0623 54.0503 3 44 984 -21.3420 54.0737 2 50 -22.0074 54.2851 TC 55 5 129
1985009S11072 1985 5 SI MM CELESTINA 1985-01-16 18:00:00 TS -21.7750 54.4000 44 984 reunion main 108 98 O____O____O_O_ jtwc_sh SH101985 -22.1000 54.5000 XX 55 -5 -21.3000 54.2000 3 44 984 3.50000 3.50000 -21.6000 54.4000 2 50 -22.1000 54.5000 TC 55 6 130
1985009S11072 1985 5 SI MM CELESTINA 1985-01-16 21:00:00 TS -21.9921 54.6713 main 99 98 P____P____P_P_ SH101985 -22.2150 54.7849 XX 55 -5 -21.6501 54.4847 3 44 984 -21.8881 54.6307 2 50 -22.2150 54.7849 TC 55 7 128
1985009S11072 1985 5 SI MM CELESTINA 1985-01-17 00:00:00 TS -22.1893 54.9622 44 984 reunion main 105 102 O____O____P_O_ jtwc_sh SH101985 -22.3000 55.1000 XX 55 -5 -22.0000 54.8000 3 44 984 3.50000 3.50000 -22.1571 54.8489 2 50 -22.3000 55.1000 TC 55 6 123
1985009S11072 1985 5 SI MM CELESTINA 1985-01-17 03:00:00 TS -22.3300 55.2350 main 108 105 P____P____P_P_ SH101985 -22.3375 55.4075 XX 55 -5 -22.2974 55.0573 3 44 984 -22.3475 55.0678 2 50 -22.3375 55.4075 TC 55 5 108
1985009S11072 1985 5 SI MM CELESTINA 1985-01-17 06:00:00 TS -22.3500 55.5000 44 984 reunion main 101 90 O____O____O_O_ jtwc_sh SH101985 -22.3000 55.7000 XX 55 -5 -22.4000 55.3000 3 44 984 3.50000 3.50000 -22.4000 55.3000 2 50 -22.3000 55.7000 TC 55 6 73
1985009S11072 1985 5 SI MM CELESTINA 1985-01-17 09:00:00 TS -22.1679 55.8059 main 91 69 P____P____P_P_ SH101985 -22.1725 55.9952 XX 55 -5 -22.1675 55.5730 3 44 984 -22.1588 55.6603 2 48 -22.1725 55.9952 TC 55 7 49
1985009S11072 1985 5 SI MM CELESTINA 1985-01-17 12:00:00 TS -21.8982 56.0544 44 984 reunion main 73 54 O____O____P_O_ jtwc_sh SH101985 -22.0000 56.2000 XX 55 -5 -21.8000 55.8000 3 44 984 3.50000 3.50000 -21.7929 56.0177 2 47 -22.0000 56.2000 TC 55 6 34
1985009S11072 1985 5 SI MM CELESTINA 1985-01-17 15:00:00 TS -21.6550 56.1814 main 60 47 P____P____P_P_ SH101985 -21.8499 56.2675 XX 55 -5 -21.4899 55.8999 3 44 984 -21.4304 56.2908 2 46 -21.8499 56.2675 TC 55 4 18
1985009S11072 1985 5 SI MM CELESTINA 1985-01-17 18:00:00 TS -21.4750 56.2000 44 984 reunion main 47 42 O____O____O_O_ jtwc_sh SH101985 -21.7000 56.2000 XX 55 -5 -21.3000 56.0000 3 44 984 3.50000 3.50000 -21.2000 56.4000 2 45 -21.7000 56.2000 TC 55 2 350
1985009S11072 1985 5 SI MM CELESTINA 1985-01-17 21:00:00 TS -21.4313 56.1502 main 42 30 P____P____P_P_ SH101985 -21.5425 56.0374 XX 52 -5 -21.3251 56.3021 3 40 987 -21.3152 56.2240 2 43 -21.5425 56.0374 TC 52 2 272
1985009S11072 1985 5 SI MM CELESTINA 1985-01-18 00:00:00 TS -21.4671 55.9967 36 991 reunion main 30 15 O____O____P_O_ jtwc_sh SH101985 -21.4000 55.8000 XX 50 -5 -21.5000 56.5000 3 36 991 3.00000 3.00000 -21.5684 55.8868 2 42 -21.4000 55.8000 TC 50 4 254
1985009S11072 1985 5 SI MM CELESTINA 1985-01-18 03:00:00 TS -21.5475 55.7303 main 15 15 P____P____P_P_ SH101985 -21.2850 55.5500 XX 45 -5 -21.7575 56.3404 3 36 991 -21.8624 55.4809 2 41 -21.2850 55.5500 TC 45 6 253
1985009S11072 1985 5 SI MM CELESTINA 1985-01-18 06:00:00 TS -21.6250 55.4250 36 991 reunion main 30 30 O____O____O_O_ jtwc_sh SH101985 -21.2000 55.3000 XX 40 -5 -22.0000 56.0000 3 36 991 3.00000 3.00000 -22.1000 55.1000 2 40 -21.2000 55.3000 TC 40 5 261
1985009S11072 1985 5 SI MM CELESTINA 1985-01-18 09:00:00 TS -21.6280 55.1976 main 35 35 P____P____P_P_ SH101985 -21.1274 55.0925 XX 37 -5 -22.0948 55.6874 3 36 991 -22.1624 54.9180 2 38 -21.1274 55.0925 TC 37 4 272
1985009S11072 1985 5 SI MM CELESTINA 1985-01-18 12:00:00 TS -21.6135 54.9680 36 991 reunion main 45 45 O____O____P_O_ jtwc_sh SH101985 -21.1000 54.9000 XX 35 -5 -22.1000 55.3000 3 36 991 3.00000 3.00000 -22.1539 54.7722 2 37 -21.1000 54.9000 TC 35 5 273
1985009S11072 1985 5 SI MM CELESTINA 1985-01-18 15:00:00 TS -21.6053 54.7057 main 70 70 P____P____P_P_ SH101985 -21.1350 54.6926 XX 35 -5 -22.0575 54.8223 3 32 994 -22.0936 54.6153 2 36 -21.1350 54.6926 TC 35 5 272
1985009S11072 1985 5 SI MM CELESTINA 1985-01-18 18:00:00 TS -21.6000 54.4250 28 997 reunion main 98 98 O____O____O_O_ jtwc_sh SH101985 -21.2000 54.5000 XX 35 -5 -22.0000 54.3000 2 28 997 2.50000 2.50000 -22.0000 54.4000 2 35 -21.2000 54.5000 TC 35 6 272
1985009S11072 1985 5 SI MM CELESTINA 1985-01-18 21:00:00 TS -21.5840 54.0955 main 126 126 P____P____P_P_ SH101985 -21.2425 54.3425 XX 35 -5 -22.0152 53.7552 2 26 998 -21.8360 53.9419 2 33 -21.2425 54.3425 TC 35 6 274
1985009S11072 1985 5 SI MM CELESTINA 1985-01-19 00:00:00 TS -21.5635 53.7854 24 1000 reunion main 155 155 O____O____P_O_ jtwc_sh SH101985 -21.3000 54.2000 XX 35 -5 -22.0000 53.3000 2 24 1000 2.00000 2.00000 -21.6540 53.4416 2 32 -21.3000 54.2000 TC 35 5 275
1985009S11072 1985 5 SI MM CELESTINA 1985-01-19 03:00:00 TS -21.5330 53.5214 main 181 181 P____P____P_P_ SH101985 -21.3925 54.0425 XX 35 -5 -21.8272 52.9799 2 24 1000 -21.5198 53.0208 2 31 -21.3925 54.0425 TC 35 4 272
1985009S11072 1985 5 SI MM CELESTINA 1985-01-19 06:00:00 TS -21.5500 53.3750 24 1000 reunion main 191 191 O____O____O_O_ jtwc_sh SH101985 -21.5000 53.9000 XX 35 -5 -21.7000 52.9000 2 24 1000 2.00000 2.00000 -21.5000 52.8000 1 30 -21.5000 53.9000 TC 35 2 213
1985009S11072 1985 5 SI MM CELESTINA 1985-01-19 09:00:00 TS -21.6650 53.4246 main 198 183 P____P____P_P_ SH101985 -21.6000 53.8000 XX 35 -5 -21.7902 53.1325 2 24 1000 -21.6701 52.9659 1 30 -21.6000 53.8000 TC 35 3 149
1985009S11072 1985 5 SI MM CELESTINA 1985-01-19 12:00:00 TS -21.8396 53.5583 24 1000 reunion main 183 182 O____O____P_O_ jtwc_sh SH101985 -21.7000 53.7000 XX 35 -5 -22.0000 53.5000 2 24 1000 2.00000 2.00000 -21.9586 53.3331 1 30 -21.7000 53.7000 TC 35 4 149
1985009S11072 1985 5 SI MM CELESTINA 1985-01-19 15:00:00 TS -22.0231 53.6585 main 182 182 P____P____P_P_ SH101985 -21.7775 53.5500 XX 37 -5 -22.2199 53.7502 2 24 1000 -22.3175 53.7841 1 30 -21.7775 53.5500 TC 37 4 156
1985009S11072 1985 5 SI MM CELESTINA 1985-01-19 18:00:00 TS -22.2500 53.7500 24 1000 reunion main 184 190 O____O____O_O_ jtwc_sh SH101985 -21.9000 53.4000 XX 40 -5 -22.5000 54.0000 2 24 1000 2.00000 2.00000 -22.7000 54.2000 1 30 -21.9000 53.4000 TC 40 5 161
1985009S11072 1985 5 SI MM CELESTINA 1985-01-19 21:00:00 TS -22.5328 53.8437 main 204 204 P____P____P_P_ SH101985 -22.1200 53.2999 XX 40 -5 -22.8276 54.3149 2 24 1000 -23.0637 54.4602 1 30 -22.1200 53.2999 TC 40 6 166
1985009S11072 1985 5 SI MM CELESTINA 1985-01-20 00:00:00 TS -22.8593 53.9143 24 1000 reunion main 229 229 O____O____P_O_ jtwc_sh SH101985 -22.4000 53.2000 XX 40 -5 -23.2000 54.6000 2 24 1000 2.00000 2.00000 -23.4370 54.6571 1 30 -22.4000 53.2000 TC 40 7 174
1985009S11072 1985 5 SI MM CELESTINA 1985-01-20 03:00:00 TS -23.1980 53.9214 main 256 256 P____P____P_P_ SH101985 -22.6925 53.0426 XX 40 -5 -23.6149 54.8248 2 24 1000 -23.7918 54.7756 1 30 -22.6925 53.0426 TC 40 7 183
1985009S11072 1985 5 SI MM CELESTINA 1985-01-20 06:00:00 MX -23.5250 53.8750 24 1000 reunion main 284 284 O____O____O_O_ jtwc_sh SH101985 -23.0000 52.9000 XX 40 -5 -24.0000 54.9000 5 24 1000 2.00000 2.00000 -24.1000 54.8000 1 30 -23.0000 52.9000 TC 40 6 193
1985009S11072 1985 5 SI MM CELESTINA 1985-01-20 09:00:00 MX -23.7976 53.7797 main 319 319 P____P____P_P_ SH101985 -23.2925 52.8274 XX 37 -5 -24.2800 54.7528 5 24 1000 -24.3254 54.7111 1 31 -23.2925 52.8274 TC 37 6 201
1985009S11072 1985 5 SI MM CELESTINA 1985-01-20 12:00:00 MX -24.0507 53.6583 24 1000 reunion main 353 353 O____O____P_O_ jtwc_sh SH101985 -23.6000 52.8000 XX 35 -5 -24.5000 54.5000 5 24 1000 2.00000 2.00000 -24.5027 54.5334 1 32 -23.6000 52.8000 TC 35 6 202
1985009S11072 1985 5 SI MM CELESTINA 1985-01-20 15:00:00 MX -24.3153 53.5460 main 382 382 P____P____P_P_ SH101985 -23.9425 52.7924 XX 35 -5 -24.7225 54.2850 5 26 998 -24.6536 54.3139 1 33 -23.9425 52.7924 TC 35 6 200
1985009S11072 1985 5 SI MM CELESTINA 1985-01-20 18:00:00 MX -24.5750 53.4500 28 997 reunion main 412 412 O____O____O_O_ jtwc_sh SH101985 -24.3000 52.8000 XX 35 -5 -24.9000 54.1000 5 28 997 2.50000 2.50000 -24.8000 54.1000 2 35 -24.3000 52.8000 TC 35 5 198
1985009S11072 1985 5 SI MM CELESTINA 1985-01-20 21:00:00 MX -24.7930 53.3716 main 436 436 P____P____P_P_ SH101985 -24.6425 52.7926 XX 35 -5 -24.9850 53.9848 5 32 994 -24.9019 53.9164 2 36 -24.6425 52.7926 TC 35 5 196
1985009S11072 1985 5 SI MM CELESTINA 1985-01-21 00:00:00 MX -25.0288 53.3134 36 991 reunion main 461 461 O____O____P_O_ jtwc_sh SH101985 -25.0000 52.8000 XX 35 -5 -25.1000 53.9000 5 36 991 3.00000 3.00000 -25.0150 53.7535 2 37 -25.0000 52.8000 TC 35 6 189
1985009S11072 1985 5 SI MM CELESTINA 1985-01-21 03:00:00 MX -25.3358 53.2735 main 491 491 P____P____P_P_ SH101985 -25.4000 52.8350 XX 35 -5 -25.3475 53.7851 5 36 991 -25.1956 53.6388 2 38 -25.4000 52.8350 TC 35 7 184
1985009S11072 1985 5 SI MM CELESTINA 1985-01-21 06:00:00 MX -25.7000 53.2750 36 991 reunion main 532 532 O____O____O_O_ jtwc_sh SH101985 -25.8000 52.9000 XX 35 -5 -25.7000 53.7000 5 36 991 3.00000 3.00000 -25.5000 53.6000 2 40 -25.8000 52.9000 TC 35 8 177
1985009S11072 1985 5 SI MM CELESTINA 1985-01-21 09:00:00 MX -26.1092 53.3234 main 573 573 P____P____P_P_ SH101985 -26.1500 52.9925 XX 35 -5 -26.1050 53.6627 5 36 991 -26.0320 53.6459 2 38 -26.1500 52.9925 TC 35 9 169
1985009S11072 1985 5 SI MM CELESTINA 1985-01-21 12:00:00 MX -26.5807 53.4633 36 991 reunion main 618 618 O____O____P_O_ jtwc_sh SH101985 -26.5000 53.1000 XX 35 -5 -26.6000 53.7000 5 36 991 3.00000 3.00000 -26.6823 53.7715 2 37 -26.5000 53.1000 TC 35 11 164
1985009S11072 1985 5 SI MM CELESTINA 1985-01-21 15:00:00 MX -27.1488 53.6563 main 665 665 P____P____P_P_ SH101985 -26.8875 53.2024 XX 35 -5 -27.1924 53.8051 5 32 994 -27.3664 53.9615 2 36 -26.8875 53.2024 TC 35 13 161
1985009S11072 1985 5 SI MM CELESTINA 1985-01-21 18:00:00 MX -27.7800 53.9400 28 997 reunion main 735 733 O____O____O_O_ jtwc_sh SH101985 -27.3000 53.3000 XX 35 -5 -27.8000 54.0000 5 28 997 2.50000 2.50000 -28.0000 54.2000 2 35 -27.3000 53.3000 TC 35 14 153
1985009S11072 1985 5 SI MM CELESTINA 1985-01-21 21:00:00 ET -28.3592 54.3627 main 791 791 _____P____P___ SH101985 XX -5 -28.3224 54.2627 5 26 998 -28.3959 54.4627 2 33 TC 12 147
1985009S11072 1985 5 SI MM CELESTINA 1985-01-22 00:00:00 ET -28.7702 54.6826 24 1000 reunion main 831 831 _____O____P___ XX -5 -28.8000 54.6000 5 24 1000 2.00000 2.00000 -28.7404 54.7653 2 32 10 144
1985009S11072 1985 5 SI MM CELESTINA 1985-01-22 03:00:00 ET -29.1409 55.0175 main 862 862 _____P____P___ XX -5 -29.1671 54.9499 5 24 1000 -29.1147 55.0851 2 31 11 145
1985009S11072 1985 5 SI MM CELESTINA 1985-01-22 06:00:00 ET -29.6500 55.4000 24 1000 reunion main 916 927 _____O____O___ -1 -29.7000 55.4000 5 24 1000 2.00000 2.00000 -29.6000 55.4000 1 30 16 150
1985009S11072 1985 5 SI MM CELESTINA 1985-01-22 09:00:00 ET -30.5033 55.9295 main 1016 1016 _____P____P___ -1 -30.7437 56.1198 5 24 1000 -30.2628 55.7393 1 31 20 155
1985009S11072 1985 5 SI MM CELESTINA 1985-01-22 12:00:00 ET -31.4243 56.3819 24 1000 reunion main 1119 1119 _____O____P___ -1 -31.8000 56.7000 5 24 1000 2.00000 2.00000 -31.0485 56.0638 1 32 17 161
1985009S11072 1985 5 SI MM CELESTINA 1985-01-22 15:00:00 ET -32.1206 56.5635 main 1199 1199 _____P____P___ -1 -32.3063 56.7951 5 24 1000 -31.9348 56.3319 1 33 14 176
1985009S11072 1985 5 SI MM CELESTINA 1985-01-22 18:00:00 ET -32.8500 56.5000 24 1000 reunion main 1260 1260 _____O____O___ -1 -32.8000 56.5000 5 24 1000 2.00000 2.00000 -32.9000 56.5000 2 35 17 191
1985009S11072 1985 5 SI MM CELESTINA 1985-01-22 21:00:00 ET -33.8105 56.1591 main 1315 1315 _____P____P___ -1 -33.6968 55.7828 5 26 998 -33.9241 56.5353 2 36 21 195
1985009S11072 1985 5 SI MM CELESTINA 1985-01-23 00:00:00 ET -34.8960 55.8288 28 997 reunion main 1381 1381 _____O____P___ -1 -34.8000 55.2000 5 28 997 2.50000 2.50000 -34.9920 56.4575 2 37 22 187
1985009S11072 1985 5 SI MM CELESTINA 1985-01-23 03:00:00 ET -36.0370 55.8262 main 1477 1477 _____P____P___ -1 -35.9850 55.3519 5 28 994 -36.0890 56.3005 2 38 23 176
1985009S11072 1985 5 SI MM CELESTINA 1985-01-23 06:00:00 ET -37.2000 56.0500 28 991 reunion main 1601 _____O____O___ -1 -37.2000 56.0000 5 28 991 2.50000 2.50000 -37.2000 56.1000 2 40 24 171

About IBTrACS Database

This database is a web-friendly format of International Best Track Archive for Climate Stewardship (IBTrACS), a global best track data archive curated by NOAA dating back to 1842.

Updated: 2021-10-25